Time;durP1;ratioP1;P1;durP2;ratioP2;P2;SDS_P1;SDS_P2;PMS_P1;PMS_P2;Temp;Humidity;BMP_temperature;BMP_pressure;BME280_temperature;BME280_humidity;BME280_pressure;Samples;Min_cycle;Max_cycle;Signal;HPM_P1;HPM_P2
2024/02/23 00:00:29;;;;;;;6.28;4.78;;;;;;;;;;5023965;28;20029;-69
2024/02/23 00:02:56;;;;;;;6.45;4.72;;;;;;;;;;5023668;28;20033;-67
2024/02/23 00:05:21;;;;;;;6.43;4.45;;;;;;;;;;5023708;28;20033;-68
2024/02/23 00:07:47;;;;;;;6.22;4.63;;;;;;;;;;5023364;28;20868;-68
2024/02/23 00:10:12;;;;;;;6.32;4.72;;;;;;;;;;5023995;28;20037;-67
2024/02/23 00:12:37;;;;;;;6.90;4.57;;;;;;;;;;5028299;28;20134;-69
2024/02/23 00:15:03;;;;;;;6.35;4.88;;;;;;;;;;5004333;28;20037;-71
2024/02/23 00:17:28;;;;;;;6.20;4.78;;;;;;;;;;5022409;28;20057;-66
2024/02/23 00:19:53;;;;;;;6.13;4.68;;;;;;;;;;5022969;28;20103;-66
2024/02/23 00:22:19;;;;;;;6.15;4.78;;;;;;;;;;5022559;28;20107;-66
2024/02/23 00:24:44;;;;;;;6.47;4.75;;;;;;;;;;5020808;28;20144;-68
2024/02/23 00:27:09;;;;;;;5.57;4.07;;;;;;;;;;5022314;28;20072;-69
2024/02/23 00:29:35;;;;;;;6.22;4.63;;;;;;;;;;5016429;28;20053;-69
2024/02/23 00:32:00;;;;;;;6.43;4.22;;;;;;;;;;5020139;28;20037;-70
2024/02/23 00:34:26;;;;;;;5.72;4.53;;;;;;;;;;5023284;28;20041;-70
2024/02/23 00:36:51;;;;;;;6.18;4.75;;;;;;;;;;5022351;28;20072;-70
2024/02/23 00:39:16;;;;;;;6.43;4.78;;;;;;;;;;5022994;28;20055;-67
2024/02/23 00:41:42;;;;;;;6.00;4.53;;;;;;;;;;5022911;28;20052;-67
2024/02/23 00:44:07;;;;;;;6.03;4.45;;;;;;;;;;5022110;28;20096;-68
2024/02/23 00:46:33;;;;;;;6.68;4.85;;;;;;;;;;5021532;28;20133;-67
2024/02/23 00:48:58;;;;;;;5.40;4.55;;;;;;;;;;5025548;28;20384;-68
2024/02/23 00:51:23;;;;;;;5.07;4.40;;;;;;;;;;5026753;28;20041;-67
2024/02/23 00:53:48;;;;;;;6.32;4.97;;;;;;;;;;5023376;28;20045;-67
2024/02/23 00:56:14;;;;;;;5.88;4.40;;;;;;;;;;5027051;28;20116;-72
2024/02/23 00:58:39;;;;;;;5.18;4.10;;;;;;;;;;5017090;28;20042;-69
2024/02/23 01:01:05;;;;;;;5.30;4.55;;;;;;;;;;5028658;28;20104;-68
2024/02/23 01:03:30;;;;;;;5.32;4.20;;;;;;;;;;5023248;28;20057;-67
2024/02/23 01:05:55;;;;;;;5.82;4.50;;;;;;;;;;5022203;28;20044;-67
2024/02/23 01:08:20;;;;;;;6.05;4.32;;;;;;;;;;5022072;28;20052;-69
2024/02/23 01:10:46;;;;;;;5.13;4.22;;;;;;;;;;5023068;28;20040;-69
2024/02/23 01:13:11;;;;;;;5.78;4.53;;;;;;;;;;5018750;28;20561;-67
2024/02/23 01:15:36;;;;;;;5.55;4.38;;;;;;;;;;5015062;28;20040;-67
2024/02/23 01:18:03;;;;;;;5.57;4.05;;;;;;;;;;5017090;28;20026;-67
2024/02/23 01:20:28;;;;;;;5.95;4.10;;;;;;;;;;5021283;28;20562;-70
2024/02/23 01:22:53;;;;;;;6.55;4.50;;;;;;;;;;5004466;28;20121;-66
2024/02/23 01:25:19;;;;;;;6.70;4.85;;;;;;;;;;5022851;28;20039;-66
2024/02/23 01:27:44;;;;;;;5.57;4.20;;;;;;;;;;5020278;28;20100;-65
2024/02/23 01:30:10;;;;;;;5.28;4.20;;;;;;;;;;5024445;28;20511;-67
2024/02/23 01:32:37;;;;;;;5.03;3.90;;;;;;;;;;5021554;28;20038;-67
2024/02/23 01:35:02;;;;;;;4.95;3.97;;;;;;;;;;5015211;28;20030;-67
2024/02/23 01:37:28;;;;;;;5.88;4.28;;;;;;;;;;5010795;28;20056;-68
2024/02/23 01:39:53;;;;;;;5.38;4.28;;;;;;;;;;5020024;28;20377;-68
2024/02/23 01:42:19;;;;;;;6.57;4.32;;;;;;;;;;5018249;28;20503;-66
2024/02/23 01:44:44;;;;;;;5.70;4.07;;;;;;;;;;5021980;28;20041;-67
2024/02/23 01:47:10;;;;;;;6.25;4.25;;;;;;;;;;5004008;28;20049;-67
2024/02/23 01:49:35;;;;;;;5.65;3.83;;;;;;;;;;5021168;28;20053;-68
2024/02/23 01:52:01;;;;;;;5.13;4.10;;;;;;;;;;5008579;28;20030;-69
2024/02/23 01:54:28;;;;;;;4.80;3.80;;;;;;;;;;5025029;28;20045;-71
2024/02/23 01:56:53;;;;;;;5.22;4.30;;;;;;;;;;5023962;28;20037;-66
2024/02/23 01:59:18;;;;;;;4.68;3.75;;;;;;;;;;5026859;28;20477;-69
2024/02/23 02:01:44;;;;;;;6.85;4.30;;;;;;;;;;5004741;28;20118;-70
2024/02/23 02:04:09;;;;;;;5.88;4.43;;;;;;;;;;5020940;28;20041;-70
2024/02/23 02:06:34;;;;;;;4.28;3.58;;;;;;;;;;5003580;28;20041;-68
2024/02/23 02:09:00;;;;;;;4.97;3.90;;;;;;;;;;5024751;28;20042;-66
2024/02/23 02:11:25;;;;;;;5.00;4.03;;;;;;;;;;5021917;28;20041;-70
2024/02/23 02:13:50;;;;;;;5.57;4.15;;;;;;;;;;5020692;28;20045;-66
2024/02/23 02:16:16;;;;;;;5.32;3.45;;;;;;;;;;5021534;28;20034;-69
2024/02/23 02:18:41;;;;;;;4.75;4.00;;;;;;;;;;5021855;28;20136;-70
2024/02/23 02:21:06;;;;;;;4.35;3.60;;;;;;;;;;5022229;28;20503;-70
2024/02/23 02:23:32;;;;;;;4.80;4.10;;;;;;;;;;5018004;28;20037;-66
2024/02/23 02:25:57;;;;;;;4.93;3.53;;;;;;;;;;5021716;28;20037;-66
2024/02/23 02:28:23;;;;;;;4.80;3.78;;;;;;;;;;5015327;28;20530;-68
2024/02/23 02:30:48;;;;;;;4.03;3.45;;;;;;;;;;5010832;28;20037;-66
2024/02/23 02:33:14;;;;;;;4.80;4.05;;;;;;;;;;5021283;28;20041;-66
2024/02/23 02:35:39;;;;;;;4.40;3.70;;;;;;;;;;5021113;28;20053;-66
2024/02/23 02:38:04;;;;;;;4.30;3.90;;;;;;;;;;5020933;28;20051;-70
2024/02/23 02:40:31;;;;;;;5.03;3.60;;;;;;;;;;5020502;28;20033;-68
2024/02/23 02:42:57;;;;;;;5.47;3.78;;;;;;;;;;5003383;28;20102;-68
2024/02/23 02:45:22;;;;;;;4.95;3.85;;;;;;;;;;5022291;28;20034;-68
2024/02/23 02:47:48;;;;;;;4.00;3.47;;;;;;;;;;5002592;28;20530;-69
2024/02/23 02:50:13;;;;;;;4.63;3.70;;;;;;;;;;5020003;28;20044;-68
2024/02/23 02:52:38;;;;;;;4.78;3.45;;;;;;;;;;5021836;28;20041;-68
2024/02/23 02:55:04;;;;;;;4.63;3.67;;;;;;;;;;5026417;28;20124;-73
2024/02/23 02:57:29;;;;;;;5.05;3.65;;;;;;;;;;5026830;28;20042;-69
2024/02/23 02:59:55;;;;;;;4.22;3.47;;;;;;;;;;5035900;28;20041;-71
2024/02/23 03:02:20;;;;;;;4.20;3.47;;;;;;;;;;5032827;28;20038;-66
2024/02/23 03:04:48;;;;;;;4.70;3.70;;;;;;;;;;5025364;28;20069;-67
2024/02/23 03:07:14;;;;;;;5.10;3.70;;;;;;;;;;5013393;28;20029;-70
2024/02/23 03:09:39;;;;;;;4.43;3.63;;;;;;;;;;5025440;28;20038;-71
2024/02/23 03:12:05;;;;;;;4.45;3.53;;;;;;;;;;5026088;28;20471;-68
2024/02/23 03:14:30;;;;;;;5.45;4.03;;;;;;;;;;5022700;28;20049;-67
2024/02/23 03:16:55;;;;;;;4.63;3.35;;;;;;;;;;5026271;28;20029;-66
2024/02/23 03:19:23;;;;;;;4.93;3.88;;;;;;;;;;5027005;28;20103;-68
2024/02/23 03:21:48;;;;;;;4.82;3.90;;;;;;;;;;5013529;28;20517;-67
2024/02/23 03:24:13;;;;;;;4.57;3.58;;;;;;;;;;5024577;28;20064;-67
2024/02/23 03:26:39;;;;;;;4.88;3.67;;;;;;;;;;5024879;28;20045;-67
2024/02/23 03:29:04;;;;;;;3.88;3.25;;;;;;;;;;5024154;28;20046;-67
2024/02/23 03:31:29;;;;;;;4.60;3.72;;;;;;;;;;5024458;28;20037;-65
2024/02/23 03:33:55;;;;;;;4.18;3.78;;;;;;;;;;5024705;28;20037;-70
2024/02/23 03:36:20;;;;;;;3.72;3.17;;;;;;;;;;5021915;28;20121;-70
2024/02/23 03:38:46;;;;;;;4.45;3.30;;;;;;;;;;5024206;28;20033;-67
2024/02/23 03:41:12;;;;;;;5.40;3.67;;;;;;;;;;5024233;28;20508;-67
2024/02/23 03:43:38;;;;;;;3.92;3.15;;;;;;;;;;5024960;28;20040;-66
2024/02/23 03:46:03;;;;;;;4.65;3.33;;;;;;;;;;5024094;28;20045;-66
2024/02/23 03:48:28;;;;;;;4.30;3.53;;;;;;;;;;5021427;28;20049;-66
2024/02/23 03:50:54;;;;;;;3.90;3.20;;;;;;;;;;5024898;28;20053;-69
2024/02/23 03:53:19;;;;;;;5.80;3.72;;;;;;;;;;5041356;28;20037;-67
2024/02/23 03:55:44;;;;;;;3.83;2.83;;;;;;;;;;5029316;28;20037;-67
2024/02/23 03:58:10;;;;;;;4.10;3.20;;;;;;;;;;5025055;28;20119;-68
2024/02/23 04:00:35;;;;;;;3.95;3.10;;;;;;;;;;5024820;28;20034;-70
2024/02/23 04:03:00;;;;;;;4.45;3.40;;;;;;;;;;5024193;28;20083;-71
2024/02/23 04:05:26;;;;;;;6.00;3.65;;;;;;;;;;5003854;28;20030;-71
2024/02/23 04:07:51;;;;;;;4.80;3.50;;;;;;;;;;5024102;28;20033;-67
2024/02/23 04:10:19;;;;;;;4.13;3.30;;;;;;;;;;5007105;28;20030;-68
2024/02/23 04:12:46;;;;;;;4.38;3.30;;;;;;;;;;5038777;28;20045;-66
2024/02/23 04:15:11;;;;;;;3.90;3.13;;;;;;;;;;5026711;28;20029;-66
2024/02/23 04:17:36;;;;;;;3.72;2.85;;;;;;;;;;5022419;28;20045;-71
2024/02/23 04:20:05;;;;;;;4.03;3.17;;;;;;;;;;5023742;28;20143;-69
2024/02/23 04:22:30;;;;;;;4.50;3.28;;;;;;;;;;5022917;28;20087;-69
2024/02/23 04:24:55;;;;;;;5.20;3.25;;;;;;;;;;5023499;28;20029;-66
2024/02/23 04:27:21;;;;;;;3.83;3.33;;;;;;;;;;5029317;28;20546;-67
2024/02/23 04:29:46;;;;;;;3.95;3.05;;;;;;;;;;5023843;28;20503;-66
2024/02/23 04:32:11;;;;;;;4.43;3.55;;;;;;;;;;5024477;28;20087;-66
2024/02/23 04:34:37;;;;;;;4.10;3.40;;;;;;;;;;5023166;28;20029;-66
2024/02/23 04:37:02;;;;;;;3.33;3.00;;;;;;;;;;5023409;28;20018;-67
2024/02/23 04:39:28;;;;;;;4.35;3.38;;;;;;;;;;5004584;28;20055;-66
2024/02/23 04:41:53;;;;;;;3.55;3.17;;;;;;;;;;5023993;28;20021;-66
2024/02/23 04:44:19;;;;;;;4.65;3.13;;;;;;;;;;5023515;28;20053;-68
2024/02/23 04:46:44;;;;;;;3.60;3.10;;;;;;;;;;5023841;28;20027;-67
2024/02/23 04:49:11;;;;;;;4.10;3.28;;;;;;;;;;5023824;28;20035;-71
2024/02/23 04:51:37;;;;;;;3.78;3.20;;;;;;;;;;5021888;28;20022;-66
2024/02/23 04:54:02;;;;;;;4.18;3.22;;;;;;;;;;5025401;28;20032;-67
2024/02/23 04:56:28;;;;;;;3.58;3.00;;;;;;;;;;5025130;28;20025;-70
2024/02/23 04:58:53;;;;;;;4.40;3.30;;;;;;;;;;5023226;28;20033;-69
2024/02/23 05:01:19;;;;;;;4.53;3.20;;;;;;;;;;5005906;28;20484;-70
2024/02/23 05:03:44;;;;;;;3.72;2.88;;;;;;;;;;5023496;28;20029;-67
2024/02/23 05:06:10;;;;;;;3.33;2.97;;;;;;;;;;5023311;28;20014;-68
2024/02/23 05:08:35;;;;;;;3.80;3.00;;;;;;;;;;5014227;28;20037;-70
2024/02/23 05:11:00;;;;;;;4.95;3.30;;;;;;;;;;5022099;28;20557;-68
2024/02/23 05:13:26;;;;;;;3.70;2.90;;;;;;;;;;4999192;28;20079;-67
2024/02/23 05:15:51;;;;;;;3.42;2.95;;;;;;;;;;5011258;28;20021;-67
2024/02/23 05:18:17;;;;;;;3.55;3.00;;;;;;;;;;5008987;28;20634;-78
2024/02/23 05:20:42;;;;;;;3.97;2.95;;;;;;;;;;5000513;28;20029;-67
2024/02/23 05:23:07;;;;;;;3.65;2.80;;;;;;;;;;4996292;28;20724;-68
2024/02/23 05:25:33;;;;;;;4.47;3.30;;;;;;;;;;5024537;28;20384;-66
2024/02/23 05:27:58;;;;;;;3.17;2.80;;;;;;;;;;5003157;28;20040;-66
2024/02/23 05:30:24;;;;;;;3.92;3.10;;;;;;;;;;5024638;28;20029;-67
2024/02/23 05:32:49;;;;;;;4.30;2.85;;;;;;;;;;5015681;28;20029;-68
2024/02/23 05:35:14;;;;;;;3.63;2.65;;;;;;;;;;5031132;28;20021;-67
2024/02/23 05:37:41;;;;;;;3.78;3.08;;;;;;;;;;5028220;28;20051;-66
2024/02/23 05:40:09;;;;;;;4.03;2.83;;;;;;;;;;5027590;28;20021;-65
2024/02/23 05:42:35;;;;;;;3.80;2.88;;;;;;;;;;5009470;28;20032;-67
2024/02/23 05:45:01;;;;;;;4.10;2.88;;;;;;;;;;5007975;28;20042;-70
2024/02/23 05:47:26;;;;;;;3.80;2.70;;;;;;;;;;5009567;28;20038;-68
2024/02/23 05:49:52;;;;;;;3.90;2.90;;;;;;;;;;4988391;28;20471;-68
2024/02/23 05:52:17;;;;;;;4.15;2.75;;;;;;;;;;4997469;28;20570;-67
2024/02/23 05:54:42;;;;;;;3.08;2.40;;;;;;;;;;5018763;28;20093;-69
2024/02/23 05:57:08;;;;;;;3.47;2.85;;;;;;;;;;5015556;28;20036;-67
2024/02/23 05:59:33;;;;;;;3.90;3.00;;;;;;;;;;5016900;28;20574;-68
2024/02/23 06:01:59;;;;;;;3.55;3.03;;;;;;;;;;5015883;28;20045;-68
2024/02/23 06:04:25;;;;;;;3.50;2.60;;;;;;;;;;5023214;28;20037;-65
2024/02/23 06:06:50;;;;;;;3.28;2.65;;;;;;;;;;5027536;28;20068;-66
2024/02/23 06:09:15;;;;;;;3.10;2.47;;;;;;;;;;5029729;28;20065;-66
2024/02/23 06:11:41;;;;;;;3.47;2.70;;;;;;;;;;5018842;28;20041;-66
2024/02/23 06:14:07;;;;;;;4.15;2.67;;;;;;;;;;5014264;28;20050;-66
2024/02/23 06:16:32;;;;;;;3.80;3.00;;;;;;;;;;5014518;28;20030;-66
2024/02/23 06:18:58;;;;;;;3.08;2.53;;;;;;;;;;5015163;28;20037;-65
2024/02/23 06:21:23;;;;;;;3.13;2.78;;;;;;;;;;5016777;28;20546;-67
2024/02/23 06:23:48;;;;;;;3.40;2.70;;;;;;;;;;5017084;28;20064;-69
2024/02/23 06:26:14;;;;;;;3.22;2.58;;;;;;;;;;5014554;28;20034;-67
2024/02/23 06:28:41;;;;;;;3.28;2.50;;;;;;;;;;5014699;28;20048;-68
2024/02/23 06:31:06;;;;;;;4.10;3.25;;;;;;;;;;5031616;28;20033;-69
2024/02/23 06:33:32;;;;;;;3.60;2.85;;;;;;;;;;5023783;28;20041;-68
2024/02/23 06:35:57;;;;;;;3.08;2.50;;;;;;;;;;5022610;28;20532;-65
2024/02/23 06:38:23;;;;;;;3.70;2.63;;;;;;;;;;5042165;28;20032;-68
2024/02/23 06:40:48;;;;;;;3.90;2.55;;;;;;;;;;5024077;28;20041;-65
2024/02/23 06:43:13;;;;;;;3.45;2.78;;;;;;;;;;5009053;28;20037;-66
2024/02/23 06:45:39;;;;;;;3.60;2.40;;;;;;;;;;5021891;28;21083;-67
2024/02/23 06:48:04;;;;;;;6.35;4.22;;;;;;;;;;5021712;28;20566;-67
2024/02/23 06:50:30;;;;;;;3.63;2.70;;;;;;;;;;5024093;28;20040;-65
2024/02/23 06:52:55;;;;;;;3.72;2.78;;;;;;;;;;5001472;28;20519;-68
2024/02/23 06:55:21;;;;;;;3.25;2.70;;;;;;;;;;5022611;28;20534;-65
2024/02/23 06:57:46;;;;;;;3.50;2.65;;;;;;;;;;5022500;28;21845;-70
2024/02/23 07:00:12;;;;;;;3.60;2.45;;;;;;;;;;5018756;28;20034;-65
2024/02/23 07:02:37;;;;;;;3.08;2.53;;;;;;;;;;5019680;28;20040;-69
2024/02/23 07:05:04;;;;;;;3.65;2.45;;;;;;;;;;5018956;28;20128;-67
2024/02/23 07:07:30;;;;;;;4.00;2.92;;;;;;;;;;5019434;28;20037;-66
2024/02/23 07:09:55;;;;;;;4.47;2.70;;;;;;;;;;4991326;28;20124;-71
2024/02/23 07:12:21;;;;;;;3.92;2.50;;;;;;;;;;5017953;28;20123;-68
2024/02/23 07:14:46;;;;;;;4.50;2.90;;;;;;;;;;5001724;28;20120;-68
2024/02/23 07:17:11;;;;;;;3.53;2.70;;;;;;;;;;5017943;28;20124;-69
2024/02/23 07:19:37;;;;;;;5.05;2.70;;;;;;;;;;5018863;28;20044;-68
2024/02/23 07:22:03;;;;;;;3.53;2.53;;;;;;;;;;5019574;28;20038;-67
2024/02/23 07:24:28;;;;;;;4.32;2.78;;;;;;;;;;5019544;28;20042;-68
2024/02/23 07:26:53;;;;;;;2.72;2.35;;;;;;;;;;4996287;28;20042;-70
2024/02/23 07:29:19;;;;;;;2.88;2.25;;;;;;;;;;5022067;28;20452;-69
2024/02/23 07:31:45;;;;;;;3.40;2.40;;;;;;;;;;5020160;28;20037;-68
2024/02/23 07:34:10;;;;;;;3.30;2.60;;;;;;;;;;5018722;28;20076;-65
2024/02/23 07:36:35;;;;;;;3.03;2.60;;;;;;;;;;5019994;28;20132;-64
2024/02/23 07:39:00;;;;;;;3.75;2.70;;;;;;;;;;5022546;28;20175;-67
2024/02/23 07:41:26;;;;;;;4.07;2.63;;;;;;;;;;5021293;28;20396;-69
2024/02/23 07:43:51;;;;;;;2.95;2.30;;;;;;;;;;5017634;28;20037;-68
2024/02/23 07:46:17;;;;;;;3.50;2.30;;;;;;;;;;5013522;28;20038;-69
2024/02/23 07:48:42;;;;;;;3.42;2.42;;;;;;;;;;5020056;28;20067;-69
2024/02/23 07:51:07;;;;;;;2.80;2.47;;;;;;;;;;5020709;28;20042;-69
2024/02/23 07:53:33;;;;;;;3.15;2.20;;;;;;;;;;5001338;28;20041;-70
2024/02/23 07:56:01;;;;;;;2.95;2.03;;;;;;;;;;5000245;28;20070;-70
2024/02/23 07:58:27;;;;;;;3.20;2.53;;;;;;;;;;4994740;28;20034;-69
2024/02/23 08:00:53;;;;;;;3.00;2.55;;;;;;;;;;4997647;28;20045;-69
2024/02/23 08:03:18;;;;;;;3.17;2.22;;;;;;;;;;5017305;28;20143;-70
2024/02/23 08:05:44;;;;;;;2.78;2.40;;;;;;;;;;5018402;28;20041;-70
2024/02/23 08:08:09;;;;;;;3.00;2.25;;;;;;;;;;5016700;28;20163;-69
2024/02/23 08:10:34;;;;;;;3.10;2.42;;;;;;;;;;5031997;28;20060;-69
2024/02/23 08:13:00;;;;;;;3.05;2.35;;;;;;;;;;5016082;28;20148;-69
2024/02/23 08:15:25;;;;;;;2.70;2.13;;;;;;;;;;5017572;28;20037;-68
2024/02/23 08:17:50;;;;;;;3.15;2.30;;;;;;;;;;5015149;28;20058;-67
2024/02/23 08:20:16;;;;;;;2.78;2.45;;;;;;;;;;5015662;28;20041;-68
2024/02/23 08:22:41;;;;;;;3.00;2.33;;;;;;;;;;4994167;28;20483;-68
2024/02/23 08:25:07;;;;;;;2.58;2.20;;;;;;;;;;5019103;28;20033;-68
2024/02/23 08:27:33;;;;;;;3.47;2.72;;;;;;;;;;5017339;28;20535;-68
2024/02/23 08:29:59;;;;;;;2.70;2.40;;;;;;;;;;5017912;28;20037;-68
2024/02/23 08:32:24;;;;;;;3.47;2.60;;;;;;;;;;5018487;28;20037;-69
2024/02/23 08:34:50;;;;;;;3.78;2.30;;;;;;;;;;5016813;28;20025;-67
2024/02/23 08:37:15;;;;;;;2.90;2.10;;;;;;;;;;5018840;28;20478;-67
2024/02/23 08:39:41;;;;;;;3.28;2.40;;;;;;;;;;5014275;28;20135;-67
2024/02/23 08:42:06;;;;;;;3.28;2.60;;;;;;;;;;5018886;28;20279;-68
2024/02/23 08:44:31;;;;;;;2.78;2.28;;;;;;;;;;5016404;28;20408;-67
2024/02/23 08:46:57;;;;;;;3.17;2.30;;;;;;;;;;5015458;28;20029;-67
2024/02/23 08:49:22;;;;;;;3.60;2.40;;;;;;;;;;5023080;28;20050;-67
2024/02/23 08:51:48;;;;;;;3.35;2.35;;;;;;;;;;5016688;28;20034;-67
2024/02/23 08:54:13;;;;;;;2.90;2.20;;;;;;;;;;5018953;28;20542;-68
2024/02/23 08:56:42;;;;;;;3.35;2.50;;;;;;;;;;5024559;28;20037;-65
2024/02/23 08:59:08;;;;;;;3.40;2.57;;;;;;;;;;5025252;28;20121;-67
2024/02/23 09:01:34;;;;;;;3.20;2.55;;;;;;;;;;5021445;28;20576;-67
2024/02/23 09:03:59;;;;;;;3.00;2.40;;;;;;;;;;5012017;28;20118;-67
2024/02/23 09:06:25;;;;;;;3.60;2.30;;;;;;;;;;5028703;28;20036;-67
2024/02/23 09:08:50;;;;;;;3.03;2.20;;;;;;;;;;5015499;28;20068;-66
2024/02/23 09:11:16;;;;;;;3.83;2.58;;;;;;;;;;5017338;28;20075;-66
2024/02/23 09:13:42;;;;;;;3.60;2.30;;;;;;;;;;4994150;28;20416;-67
2024/02/23 09:16:08;;;;;;;4.35;2.53;;;;;;;;;;5024066;28;20044;-66
2024/02/23 09:18:33;;;;;;;2.70;2.33;;;;;;;;;;5022361;28;20041;-67
2024/02/23 09:20:59;;;;;;;3.00;2.42;;;;;;;;;;5020318;28;20056;-68
2024/02/23 09:23:24;;;;;;;2.72;2.00;;;;;;;;;;5028155;28;20172;-67
2024/02/23 09:25:50;;;;;;;3.10;2.30;;;;;;;;;;5019822;28;20030;-68
2024/02/23 09:28:15;;;;;;;3.17;2.22;;;;;;;;;;5017160;28;20037;-67
2024/02/23 09:30:40;;;;;;;3.00;2.20;;;;;;;;;;5038047;28;20037;-66
2024/02/23 09:33:05;;;;;;;3.83;2.47;;;;;;;;;;5023558;28;20507;-66
2024/02/23 09:35:31;;;;;;;3.45;2.58;;;;;;;;;;5021411;28;20472;-68
2024/02/23 09:37:56;;;;;;;3.22;2.17;;;;;;;;;;5003502;28;20116;-67
2024/02/23 09:40:21;;;;;;;3.40;2.00;;;;;;;;;;4994391;28;20606;-68
2024/02/23 09:42:52;;;;;;;2.50;1.98;;;;;;;;;;4995986;28;20131;-68
2024/02/23 09:45:18;;;;;;;2.85;2.38;;;;;;;;;;5017529;28;20048;-69
2024/02/23 09:47:43;;;;;;;3.17;2.17;;;;;;;;;;4981887;28;20033;-69
2024/02/23 09:50:09;;;;;;;3.00;2.45;;;;;;;;;;5009479;28;20144;-70
2024/02/23 09:52:35;;;;;;;2.67;2.15;;;;;;;;;;5037909;28;20401;-69
2024/02/23 09:55:00;;;;;;;4.15;2.50;;;;;;;;;;5017528;28;20140;-68
2024/02/23 09:57:25;;;;;;;2.97;2.13;;;;;;;;;;5027761;28;20480;-69
2024/02/23 09:59:51;;;;;;;3.38;2.08;;;;;;;;;;5020086;28;20060;-68
2024/02/23 10:02:17;;;;;;;3.30;2.10;;;;;;;;;;5013848;28;20521;-69
2024/02/23 10:04:45;;;;;;;2.63;2.03;;;;;;;;;;5030171;28;20033;-68
2024/02/23 10:07:14;;;;;;;2.38;1.92;;;;;;;;;;5028478;28;20037;-67
2024/02/23 10:09:40;;;;;;;3.33;2.15;;;;;;;;;;4974695;28;20180;-69
2024/02/23 10:12:05;;;;;;;2.60;1.85;;;;;;;;;;5007727;28;20120;-65
2024/02/23 10:14:31;;;;;;;2.63;2.00;;;;;;;;;;4992869;28;20044;-67
2024/02/23 10:16:56;;;;;;;3.50;2.20;;;;;;;;;;5012706;28;20610;-69
2024/02/23 10:19:22;;;;;;;3.00;2.30;;;;;;;;;;5020400;28;20116;-68
2024/02/23 10:21:47;;;;;;;4.07;2.40;;;;;;;;;;5013930;28;20030;-66
2024/02/23 10:24:13;;;;;;;3.70;2.60;;;;;;;;;;5015866;28;20034;-66
2024/02/23 10:26:38;;;;;;;4.03;2.40;;;;;;;;;;5014971;28;20030;-65
2024/02/23 10:29:03;;;;;;;3.30;2.10;;;;;;;;;;5013465;28;20049;-66
2024/02/23 10:31:31;;;;;;;2.60;2.00;;;;;;;;;;5014666;28;20044;-67
2024/02/23 10:33:56;;;;;;;2.90;2.15;;;;;;;;;;4990521;28;20112;-68
2024/02/23 10:36:22;;;;;;;2.75;2.38;;;;;;;;;;4993218;28;20059;-68
2024/02/23 10:38:47;;;;;;;2.97;2.05;;;;;;;;;;5012557;28;20091;-70
2024/02/23 10:41:13;;;;;;;4.20;2.63;;;;;;;;;;4990031;28;20033;-69
2024/02/23 10:43:45;;;;;;;2.63;2.00;;;;;;;;;;5014448;28;20042;-68
2024/02/23 10:46:14;;;;;;;3.55;2.08;;;;;;;;;;5011860;28;20040;-65
2024/02/23 10:48:40;;;;;;;2.92;2.22;;;;;;;;;;5002267;28;20060;-64
2024/02/23 10:51:06;;;;;;;3.10;2.20;;;;;;;;;;5011723;28;20041;-66
2024/02/23 10:53:32;;;;;;;2.50;1.95;;;;;;;;;;5013730;28;20064;-64
2024/02/23 10:56:00;;;;;;;2.47;2.00;;;;;;;;;;4990914;28;20037;-65
2024/02/23 10:58:25;;;;;;;2.40;2.03;;;;;;;;;;5013724;28;20041;-64
2024/02/23 11:00:51;;;;;;;3.05;2.40;;;;;;;;;;5014648;28;20036;-64
2024/02/23 11:03:16;;;;;;;2.80;2.00;;;;;;;;;;5012753;28;20029;-64
2024/02/23 11:05:41;;;;;;;2.75;2.25;;;;;;;;;;5016278;28;20049;-68
2024/02/23 11:08:07;;;;;;;3.42;1.90;;;;;;;;;;5030066;28;20034;-66
2024/02/23 11:10:41;;;;;;;2.67;1.83;;;;;;;;;;5013990;28;20068;-68
2024/02/23 11:13:07;;;;;;;2.78;1.80;;;;;;;;;;5013339;28;20038;-67
2024/02/23 11:15:39;;;;;;;3.97;2.30;;;;;;;;;;5017952;28;20053;-68
2024/02/23 11:18:05;;;;;;;2.83;1.88;;;;;;;;;;5013641;28;20103;-68
2024/02/23 11:20:34;;;;;;;2.53;1.70;;;;;;;;;;4998782;28;20065;-71
2024/02/23 11:23:00;;;;;;;2.58;2.08;;;;;;;;;;5015735;28;20512;-69
2024/02/23 11:25:29;;;;;;;3.00;2.10;;;;;;;;;;5017672;28;20111;-68
2024/02/23 11:27:54;;;;;;;2.45;2.00;;;;;;;;;;5015432;28;20530;-69
2024/02/23 11:30:19;;;;;;;2.50;1.92;;;;;;;;;;5015810;28;20037;-67
2024/02/23 11:32:46;;;;;;;2.20;1.60;;;;;;;;;;4994217;28;20075;-67
2024/02/23 11:35:12;;;;;;;3.20;1.65;;;;;;;;;;5030374;28;20020;-66
2024/02/23 11:38:01;;;;;;;2.45;1.90;;;;;;;;;;4982155;28;20026;-66
2024/02/23 11:40:27;;;;;;;3.38;1.98;;;;;;;;;;5016450;28;20037;-65
2024/02/23 11:42:54;;;;;;;2.80;1.73;;;;;;;;;;4997117;28;20045;-64
2024/02/23 11:45:20;;;;;;;2.22;1.50;;;;;;;;;;5016223;28;20574;-67
2024/02/23 11:47:46;;;;;;;2.80;1.80;;;;;;;;;;5016639;28;20081;-66
2024/02/23 11:50:11;;;;;;;2.47;1.80;;;;;;;;;;5017013;28;20041;-64
2024/02/23 11:52:39;;;;;;;1.80;1.42;;;;;;;;;;5016029;28;20029;-67
2024/02/23 11:55:05;;;;;;;2.55;1.60;;;;;;;;;;5013943;28;20042;-69
2024/02/23 11:57:31;;;;;;;4.43;2.00;;;;;;;;;;4996918;28;20041;-69
2024/02/23 11:59:56;;;;;;;2.97;1.90;;;;;;;;;;5015602;28;20065;-65
2024/02/23 12:02:21;;;;;;;2.55;1.70;;;;;;;;;;5016671;28;20040;-66
2024/02/23 12:04:47;;;;;;;2.85;1.70;;;;;;;;;;4993291;28;20041;-66
2024/02/23 12:07:12;;;;;;;2.42;1.77;;;;;;;;;;4996645;28;20039;-66
2024/02/23 12:09:40;;;;;;;2.55;1.70;;;;;;;;;;5015342;28;20132;-68
2024/02/23 12:12:06;;;;;;;3.22;1.67;;;;;;;;;;5001047;28;20045;-66
2024/02/23 12:14:31;;;;;;;2.17;1.48;;;;;;;;;;4998744;28;20037;-64
2024/02/23 12:16:57;;;;;;;2.90;1.70;;;;;;;;;;5016773;28;20597;-67
2024/02/23 12:19:22;;;;;;;2.08;1.60;;;;;;;;;;5014657;28;20041;-65
2024/02/23 12:21:49;;;;;;;2.78;1.60;;;;;;;;;;5015405;28;20045;-70
2024/02/23 12:24:14;;;;;;;2.55;1.73;;;;;;;;;;5018347;28;20045;-67
2024/02/23 12:26:39;;;;;;;2.17;1.30;;;;;;;;;;5015788;28;20042;-67
2024/02/23 12:29:05;;;;;;;3.00;1.75;;;;;;;;;;4991337;28;20057;-67
2024/02/23 12:31:34;;;;;;;2.22;1.60;;;;;;;;;;5018716;28;20045;-68
2024/02/23 12:33:59;;;;;;;1.77;1.50;;;;;;;;;;5034768;28;20049;-66
2024/02/23 12:36:25;;;;;;;2.13;1.38;;;;;;;;;;4999430;28;20060;-66
2024/02/23 12:38:50;;;;;;;2.05;1.42;;;;;;;;;;5032026;28;20041;-66
2024/02/23 12:41:15;;;;;;;2.00;1.48;;;;;;;;;;5019157;28;20033;-65
2024/02/23 12:43:41;;;;;;;2.28;1.70;;;;;;;;;;5016526;28;20068;-66
2024/02/23 12:46:08;;;;;;;2.30;1.40;;;;;;;;;;5017176;28;20443;-66
2024/02/23 12:48:33;;;;;;;2.10;1.50;;;;;;;;;;4995181;28;20056;-66
2024/02/23 12:50:59;;;;;;;2.63;1.42;;;;;;;;;;5016190;28;20038;-66
2024/02/23 12:53:32;;;;;;;2.30;1.52;;;;;;;;;;4992729;28;20037;-65
2024/02/23 12:55:58;;;;;;;2.10;1.40;;;;;;;;;;4994538;28;20030;-66
2024/02/23 12:58:23;;;;;;;2.97;1.70;;;;;;;;;;5016813;28;20101;-67
2024/02/23 13:00:48;;;;;;;2.03;1.45;;;;;;;;;;5017641;28;20113;-68
2024/02/23 13:03:13;;;;;;;1.90;1.40;;;;;;;;;;4996927;28;20156;-66
2024/02/23 13:05:39;;;;;;;1.95;1.30;;;;;;;;;;4997770;28;20117;-67
2024/02/23 13:08:05;;;;;;;2.00;1.20;;;;;;;;;;5017599;28;20057;-68
2024/02/23 13:10:31;;;;;;;2.20;1.48;;;;;;;;;;5013544;28;20061;-68
2024/02/23 13:12:56;;;;;;;1.88;1.42;;;;;;;;;;5019436;28;20100;-67
2024/02/23 13:15:21;;;;;;;3.22;1.60;;;;;;;;;;5004909;28;20455;-65
2024/02/23 13:17:47;;;;;;;2.38;1.40;;;;;;;;;;5022238;28;20041;-69
2024/02/23 13:20:12;;;;;;;2.42;1.40;;;;;;;;;;5024504;28;20579;-67
2024/02/23 13:22:38;;;;;;;1.33;1.10;;;;;;;;;;4985983;28;20510;-68
2024/02/23 13:25:03;;;;;;;2.03;1.40;;;;;;;;;;5022331;28;20049;-66
2024/02/23 13:27:29;;;;;;;2.50;1.45;;;;;;;;;;5021075;28;20045;-68
2024/02/23 13:29:55;;;;;;;2.15;1.50;;;;;;;;;;5022638;28;20048;-66
2024/02/23 13:32:20;;;;;;;2.03;1.58;;;;;;;;;;5021686;28;20026;-65
2024/02/23 13:34:45;;;;;;;2.33;1.27;;;;;;;;;;5003138;28;20037;-68
2024/02/23 13:37:10;;;;;;;2.55;1.50;;;;;;;;;;5021681;28;20041;-68
2024/02/23 13:39:36;;;;;;;1.88;1.30;;;;;;;;;;5003211;28;20033;-67
2024/02/23 13:42:01;;;;;;;1.95;1.33;;;;;;;;;;5020908;28;20416;-67
2024/02/23 13:44:26;;;;;;;1.88;1.35;;;;;;;;;;5000263;28;20033;-67
2024/02/23 13:46:52;;;;;;;2.10;1.40;;;;;;;;;;5022416;28;20041;-68
2024/02/23 13:49:17;;;;;;;2.20;1.50;;;;;;;;;;5021573;28;20052;-66
2024/02/23 13:51:42;;;;;;;1.65;1.30;;;;;;;;;;5021152;28;20136;-70
2024/02/23 13:54:08;;;;;;;1.65;1.35;;;;;;;;;;5019254;28;20065;-72
2024/02/23 13:56:33;;;;;;;2.35;1.48;;;;;;;;;;5021578;28;20034;-68
2024/02/23 13:58:58;;;;;;;2.38;1.60;;;;;;;;;;5017599;28;20049;-64
2024/02/23 14:01:24;;;;;;;1.80;1.27;;;;;;;;;;5020683;28;20030;-66
2024/02/23 14:03:50;;;;;;;1.98;1.30;;;;;;;;;;5003596;28;20037;-65
2024/02/23 14:06:15;;;;;;;1.92;1.42;;;;;;;;;;5002628;28;20122;-65
2024/02/23 14:08:42;;;;;;;2.00;1.27;;;;;;;;;;5021911;28;20045;-68
2024/02/23 14:11:07;;;;;;;1.90;1.20;;;;;;;;;;5021047;28;20048;-67
2024/02/23 14:13:33;;;;;;;1.77;1.20;;;;;;;;;;5004438;28;20045;-67
2024/02/23 14:15:58;;;;;;;2.08;1.50;;;;;;;;;;5020020;28;20037;-67
2024/02/23 14:18:23;;;;;;;1.30;1.20;;;;;;;;;;5020540;28;20051;-67
2024/02/23 14:20:49;;;;;;;1.52;1.17;;;;;;;;;;5004683;28;20147;-66
2024/02/23 14:23:14;;;;;;;1.90;1.48;;;;;;;;;;5020277;28;20043;-65
2024/02/23 14:25:39;;;;;;;2.10;1.40;;;;;;;;;;5021390;28;20053;-67
2024/02/23 14:28:05;;;;;;;2.25;1.67;;;;;;;;;;5022876;28;20493;-66
2024/02/23 14:30:30;;;;;;;2.30;1.45;;;;;;;;;;5021659;28;20129;-67
2024/02/23 14:32:55;;;;;;;1.75;1.30;;;;;;;;;;5021517;28;20080;-68